createdAt,value
2023-02-16T00:00:22.793Z,100.00
2023-02-16T00:02:49.420Z,100.00
2023-02-16T00:05:31.685Z,100.00
2023-02-16T00:07:59.236Z,100.00
2023-02-16T00:10:27.193Z,100.00
2023-02-16T00:13:13.062Z,100.00
2023-02-16T00:15:40.249Z,100.00
2023-02-16T00:18:18.853Z,100.00
2023-02-16T00:20:47.722Z,100.00
2023-02-16T00:23:14.723Z,100.00
2023-02-16T00:25:41.498Z,100.00
2023-02-16T00:28:15.942Z,100.00
2023-02-16T00:30:44.861Z,100.00
2023-02-16T00:33:15.703Z,100.00
2023-02-16T00:35:42.725Z,100.00
2023-02-16T00:38:09.335Z,100.00
2023-02-16T00:40:36.379Z,100.00
2023-02-16T00:43:06.185Z,100.00
2023-02-16T00:45:37.100Z,100.00
2023-02-16T00:48:04.020Z,100.00
2023-02-16T00:50:34.383Z,100.00
2023-02-16T00:53:02.771Z,100.00
2023-02-16T00:55:33.870Z,100.00
2023-02-16T00:58:12.563Z,100.00
2023-02-16T01:00:46.656Z,100.00
2023-02-16T01:03:17.883Z,100.00
2023-02-16T01:05:44.923Z,100.00
2023-02-16T01:08:32.197Z,100.00
2023-02-16T01:11:07.513Z,100.00
2023-02-16T01:13:39.753Z,100.00
2023-02-16T01:16:16.100Z,100.00
2023-02-16T01:18:43.311Z,100.00
2023-02-16T01:21:12.333Z,100.00
2023-02-16T01:23:39.893Z,100.00
2023-02-16T01:26:13.383Z,100.00
2023-02-16T01:28:40.055Z,100.00
2023-02-16T01:31:06.983Z,100.00
2023-02-16T01:33:33.994Z,100.00
2023-02-16T01:36:00.592Z,100.00
2023-02-16T01:38:28.798Z,100.00
2023-02-16T01:41:00.012Z,100.00
2023-02-16T01:43:37.275Z,100.00
2023-02-16T01:46:12.034Z,100.00
2023-02-16T01:48:38.740Z,100.00
2023-02-16T01:51:37.981Z,100.00
2023-02-16T01:54:17.956Z,100.00
2023-02-16T01:57:23.151Z,100.00
2023-02-16T01:59:49.996Z,100.00
2023-02-16T02:02:29.263Z,100.00
2023-02-16T02:05:25.991Z,100.00
2023-02-16T02:08:01.496Z,100.00
2023-02-16T02:10:28.058Z,100.00
2023-02-16T02:13:17.300Z,100.00
2023-02-16T02:15:44.115Z,100.00
2023-02-16T02:18:11.014Z,100.00
2023-02-16T02:21:16.056Z,100.00
2023-02-16T02:24:14.099Z,100.00
2023-02-16T02:27:26.513Z,100.00
2023-02-16T02:30:18.864Z,100.00
2023-02-16T02:32:51.523Z,100.00
2023-02-16T02:35:26.872Z,100.00
2023-02-16T02:38:08.423Z,100.00
2023-02-16T02:40:56.491Z,100.00
2023-02-16T02:43:43.361Z,100.00
2023-02-16T02:46:25.598Z,100.00
2023-02-16T02:48:52.479Z,100.00
2023-02-16T02:51:29.852Z,100.00
2023-02-16T02:54:34.777Z,100.00
2023-02-16T02:57:28.551Z,100.00
2023-02-16T03:00:23.077Z,100.00
2023-02-16T03:02:53.702Z,100.00
2023-02-16T03:05:23.460Z,100.00
2023-02-16T03:07:57.350Z,100.00
2023-02-16T03:10:47.066Z,100.00
2023-02-16T03:13:22.361Z,100.00
2023-02-16T03:15:56.015Z,100.00
2023-02-16T03:18:45.313Z,100.00
2023-02-16T03:21:33.124Z,100.00
2023-02-16T03:24:22.186Z,100.00
2023-02-16T03:27:09.421Z,100.00
2023-02-16T03:29:37.683Z,100.00
2023-02-16T03:32:04.995Z,100.00
2023-02-16T03:34:32.841Z,100.00
2023-02-16T03:37:00.816Z,100.00
2023-02-16T03:39:29.177Z,100.00
2023-02-16T03:41:57.315Z,100.00
2023-02-16T03:44:25.071Z,100.00
2023-02-16T03:46:51.980Z,100.00
2023-02-16T03:49:19.622Z,100.00
2023-02-16T03:51:46.639Z,100.00
2023-02-16T03:54:13.372Z,100.00
2023-02-16T03:56:39.955Z,100.00
2023-02-16T03:59:06.625Z,100.00
2023-02-16T04:01:33.219Z,100.00
2023-02-16T04:03:59.863Z,100.00
2023-02-16T04:06:26.587Z,100.00
2023-02-16T04:08:54.577Z,100.00
2023-02-16T04:11:39.951Z,100.00
2023-02-16T04:14:06.590Z,100.00
2023-02-16T04:16:33.282Z,100.00
2023-02-16T04:18:59.898Z,100.00
2023-02-16T04:21:26.565Z,100.00
2023-02-16T04:23:53.292Z,100.00
2023-02-16T04:26:21.146Z,100.00
2023-02-16T04:28:47.781Z,100.00
2023-02-16T04:31:14.485Z,100.00
2023-02-16T04:33:41.135Z,100.00
2023-02-16T04:36:08.539Z,100.00
2023-02-16T04:38:35.114Z,100.00
2023-02-16T04:41:01.864Z,100.00
2023-02-16T04:43:28.667Z,100.00
2023-02-16T04:45:55.387Z,100.00
2023-02-16T04:48:22.059Z,100.00
2023-02-16T04:50:48.633Z,100.00
2023-02-16T04:53:15.492Z,100.00
2023-02-16T04:55:49.671Z,100.00
2023-02-16T04:58:16.680Z,100.00
2023-02-16T05:00:43.284Z,100.00
2023-02-16T05:03:10.044Z,100.00
2023-02-16T05:05:36.840Z,100.00
2023-02-16T05:08:03.675Z,100.00
2023-02-16T05:10:30.329Z,100.00
2023-02-16T05:13:15.647Z,100.00
2023-02-16T05:15:42.878Z,100.00
2023-02-16T05:18:09.483Z,100.00
2023-02-16T05:20:54.620Z,100.00
2023-02-16T05:23:21.319Z,100.00
2023-02-16T05:25:47.978Z,100.00
2023-02-16T05:28:14.673Z,100.00
2023-02-16T05:30:41.342Z,100.00
2023-02-16T05:33:08.420Z,100.00
2023-02-16T05:35:35.366Z,100.00
2023-02-16T05:38:02.023Z,100.00
2023-02-16T05:40:28.722Z,100.00
2023-02-16T05:42:55.790Z,100.00
2023-02-16T05:45:22.539Z,100.00
2023-02-16T05:47:49.146Z,100.00
2023-02-16T05:50:15.754Z,100.00
2023-02-16T05:52:42.500Z,100.00
2023-02-16T05:55:09.183Z,100.00
2023-02-16T05:57:35.777Z,100.00
2023-02-16T06:00:03.954Z,100.00
2023-02-16T06:02:31.228Z,100.00
2023-02-16T06:04:57.839Z,100.00
2023-02-16T06:07:24.512Z,100.00
2023-02-16T06:09:51.068Z,100.00
2023-02-16T06:12:17.664Z,100.00
2023-02-16T06:14:44.290Z,100.00
2023-02-16T06:17:10.863Z,100.00
2023-02-16T06:19:37.570Z,100.00
2023-02-16T06:22:04.110Z,100.00
2023-02-16T06:24:31.305Z,100.00
2023-02-16T06:26:57.951Z,100.00
2023-02-16T06:29:24.541Z,100.00
2023-02-16T06:31:51.177Z,100.00
2023-02-16T06:34:17.931Z,100.00
2023-02-16T06:36:44.616Z,100.00
2023-02-16T06:39:11.251Z,100.00
2023-02-16T06:41:40.375Z,100.00
2023-02-16T06:44:13.548Z,100.00
2023-02-16T06:46:41.944Z,100.00
2023-02-16T06:49:12.344Z,100.00
2023-02-16T06:51:39.051Z,100.00
2023-02-16T06:54:05.712Z,100.00
2023-02-16T06:56:32.669Z,100.00
2023-02-16T06:58:59.241Z,100.00
2023-02-16T07:01:26.240Z,100.00
2023-02-16T07:03:53.931Z,100.00
2023-02-16T07:06:22.063Z,100.00
2023-02-16T07:08:48.890Z,100.00
2023-02-16T07:11:16.103Z,100.00
2023-02-16T07:13:42.760Z,100.00
2023-02-16T07:16:09.936Z,100.00
2023-02-16T07:18:36.679Z,100.00
2023-02-16T07:21:04.265Z,100.00
2023-02-16T07:23:31.102Z,100.00
2023-02-16T07:25:57.799Z,100.00
2023-02-16T07:28:25.250Z,100.00
2023-02-16T07:30:51.950Z,100.00
2023-02-16T07:33:18.863Z,100.00
2023-02-16T07:35:45.427Z,100.00
2023-02-16T07:38:12.756Z,100.00
2023-02-16T07:40:39.693Z,100.00
2023-02-16T07:43:06.614Z,100.00
2023-02-16T07:45:34.007Z,100.00
2023-02-16T07:48:03.588Z,100.00
2023-02-16T07:50:30.280Z,100.00
2023-02-16T07:52:56.939Z,100.00
2023-02-16T07:55:23.573Z,100.00
2023-02-16T07:57:54.765Z,100.00
2023-02-16T08:00:22.298Z,100.00
2023-02-16T08:02:49.745Z,100.00
2023-02-16T08:05:18.586Z,100.00
2023-02-16T08:07:46.735Z,100.00
2023-02-16T08:10:14.722Z,100.00
2023-02-16T08:12:42.033Z,100.00
2023-02-16T08:15:09.889Z,100.00
2023-02-16T08:17:36.515Z,100.00
2023-02-16T08:20:05.920Z,100.00
2023-02-16T08:22:33.148Z,100.00
2023-02-16T08:24:59.926Z,100.00
2023-02-16T08:27:26.936Z,100.00
2023-02-16T08:29:54.075Z,100.00
2023-02-16T08:32:21.022Z,100.00
2023-02-16T08:34:47.801Z,100.00
2023-02-16T08:37:14.478Z,100.00
2023-02-16T08:39:41.526Z,100.00
2023-02-16T08:42:13.141Z,100.00
2023-02-16T08:44:41.196Z,100.00
2023-02-16T08:47:09.515Z,100.00
2023-02-16T08:49:36.613Z,100.00
2023-02-16T08:52:04.186Z,100.00
2023-02-16T08:54:32.505Z,100.00
2023-02-16T08:57:00.020Z,100.00
2023-02-16T08:59:28.918Z,100.00
2023-02-16T09:01:58.350Z,100.00
2023-02-16T09:04:25.692Z,100.00
2023-02-16T09:06:52.492Z,100.00
2023-02-16T09:09:19.187Z,100.00
2023-02-16T09:11:46.267Z,98.96
2023-02-16T09:14:13.012Z,99.61
2023-02-16T09:16:45.615Z,99.64
2023-02-16T09:19:15.248Z,98.44
2023-02-16T09:21:42.606Z,99.02
2023-02-16T09:24:09.522Z,97.05
2023-02-16T09:26:38.955Z,96.92
2023-02-16T09:29:07.065Z,97.50
2023-02-16T09:31:37.217Z,97.62
2023-02-16T09:34:14.719Z,96.64
2023-02-16T09:36:42.301Z,95.47
2023-02-16T09:39:08.911Z,94.00
2023-02-16T09:42:01.026Z,91.62
2023-02-16T09:44:39.326Z,92.23
2023-02-16T09:47:19.779Z,90.50
2023-02-16T09:49:47.130Z,89.43
2023-02-16T09:52:37.115Z,89.26
2023-02-16T09:55:13.336Z,89.42
2023-02-16T09:58:04.282Z,87.54
2023-02-16T10:00:53.750Z,88.28
2023-02-16T10:03:38.548Z,86.98
2023-02-16T10:06:27.136Z,87.38
2023-02-16T10:09:16.501Z,87.27
2023-02-16T10:12:15.539Z,84.31
2023-02-16T10:14:48.857Z,83.54
2023-02-16T10:17:41.922Z,83.79
2023-02-16T10:20:17.428Z,82.99
2023-02-16T10:22:50.947Z,83.96
2023-02-16T10:25:29.235Z,86.59
2023-02-16T10:28:18.101Z,87.81
2023-02-16T10:31:25.348Z,87.68
2023-02-16T10:34:30.884Z,85.77
2023-02-16T10:37:22.303Z,85.41
2023-02-16T10:40:10.143Z,81.33
2023-02-16T10:42:50.186Z,81.15
2023-02-16T10:45:32.185Z,81.01
2023-02-16T10:47:59.305Z,78.51
2023-02-16T10:50:47.939Z,78.93
2023-02-16T10:53:43.462Z,78.51
2023-02-16T10:56:23.524Z,79.72
2023-02-16T10:58:51.688Z,82.18
2023-02-16T11:01:21.850Z,81.72
2023-02-16T11:03:51.987Z,82.04
2023-02-16T11:06:29.229Z,84.61
2023-02-16T11:09:00.004Z,83.82
2023-02-16T11:11:42.067Z,82.78
2023-02-16T11:14:23.191Z,82.84
2023-02-16T11:17:12.701Z,86.47
2023-02-16T11:19:47.757Z,83.42
2023-02-16T11:22:30.035Z,80.09
2023-02-16T11:24:59.336Z,80.46
2023-02-16T11:27:26.327Z,81.82
2023-02-16T11:30:23.399Z,80.38
2023-02-16T11:32:51.724Z,82.14
2023-02-16T11:35:19.020Z,81.75
2023-02-16T11:37:46.399Z,80.47
2023-02-16T11:40:29.868Z,80.20
2023-02-16T11:43:00.147Z,81.80
2023-02-16T11:45:27.951Z,82.21
2023-02-16T11:48:00.414Z,83.18
2023-02-16T11:50:28.598Z,86.31
2023-02-16T11:53:11.224Z,86.85
2023-02-16T11:55:46.089Z,84.19
2023-02-16T11:58:19.761Z,85.38
2023-02-16T12:01:06.258Z,84.82
2023-02-16T12:03:51.304Z,84.91
2023-02-16T12:06:54.150Z,82.72
2023-02-16T12:09:39.417Z,82.83
2023-02-16T12:12:31.475Z,86.00
2023-02-16T12:15:36.464Z,87.80
2023-02-16T12:18:08.785Z,84.55
2023-02-16T12:20:41.477Z,84.36
2023-02-16T12:23:18.324Z,84.69
2023-02-16T12:25:50.504Z,84.28
2023-02-16T12:28:29.160Z,86.25
2023-02-16T12:31:17.598Z,85.88
2023-02-16T12:33:49.761Z,85.03
2023-02-16T12:36:44.418Z,85.24
2023-02-16T12:39:16.716Z,82.25
2023-02-16T12:42:13.204Z,83.89
2023-02-16T12:44:46.409Z,83.39
2023-02-16T12:47:24.459Z,83.76
2023-02-16T12:50:00.128Z,82.98
2023-02-16T12:52:41.794Z,82.58
2023-02-16T12:55:20.789Z,84.01
2023-02-16T12:58:07.669Z,83.54
2023-02-16T13:00:42.944Z,84.66
2023-02-16T13:03:24.226Z,84.19
2023-02-16T13:06:07.283Z,83.18
2023-02-16T13:09:05.989Z,80.40
2023-02-16T13:12:02.564Z,79.37
2023-02-16T13:14:33.726Z,82.81
2023-02-16T13:17:10.894Z,82.21
2023-02-16T13:19:37.595Z,81.61
2023-02-16T13:22:28.888Z,82.52
2023-02-16T13:25:14.718Z,81.88
2023-02-16T13:27:51.192Z,82.68
2023-02-16T13:30:54.549Z,82.36
2023-02-16T13:33:30.470Z,84.03
2023-02-16T13:36:36.121Z,83.07
2023-02-16T13:39:18.373Z,83.82
2023-02-16T13:41:52.169Z,83.75
2023-02-16T13:44:42.756Z,85.53
2023-02-16T13:47:18.000Z,85.72
2023-02-16T13:49:46.420Z,84.90
2023-02-16T13:52:35.911Z,82.89
2023-02-16T13:55:05.943Z,83.05
2023-02-16T13:57:51.008Z,85.02
2023-02-16T14:00:30.585Z,85.65
2023-02-16T14:03:00.845Z,87.72
2023-02-16T14:05:36.892Z,86.83
2023-02-16T14:08:23.938Z,87.22
2023-02-16T14:10:53.626Z,87.12
2023-02-16T14:13:27.504Z,87.28
2023-02-16T14:15:56.523Z,87.86
2023-02-16T14:18:26.150Z,87.72
2023-02-16T14:21:04.941Z,87.84
2023-02-16T14:23:34.819Z,87.55
2023-02-16T14:26:05.017Z,86.58
2023-02-16T14:28:32.240Z,86.30
2023-02-16T14:31:03.575Z,86.29
2023-02-16T14:33:46.230Z,87.49
2023-02-16T14:36:19.031Z,87.94
2023-02-16T14:38:48.597Z,88.04
2023-02-16T14:41:33.536Z,88.41
2023-02-16T14:44:06.463Z,88.48
2023-02-16T14:46:59.222Z,88.48
2023-02-16T14:49:50.036Z,88.92
2023-02-16T14:52:29.668Z,89.37
2023-02-16T14:55:02.381Z,89.10
2023-02-16T14:57:42.287Z,89.35
2023-02-16T15:00:31.649Z,90.48
2023-02-16T15:02:59.595Z,90.53
2023-02-16T15:05:32.891Z,90.99
2023-02-16T15:08:16.332Z,91.42
2023-02-16T15:10:46.494Z,92.08
2023-02-16T15:13:26.004Z,92.56
2023-02-16T15:15:58.372Z,92.83
2023-02-16T15:18:57.492Z,93.49
2023-02-16T15:21:30.926Z,93.91
2023-02-16T15:24:00.185Z,94.22
2023-02-16T15:26:29.908Z,94.47
2023-02-16T15:28:57.964Z,94.91
2023-02-16T15:31:30.943Z,94.98
2023-02-16T15:34:01.633Z,95.38
2023-02-16T15:36:39.898Z,95.91
2023-02-16T15:39:13.513Z,96.30
2023-02-16T15:41:44.154Z,96.70
2023-02-16T15:44:35.457Z,96.60
2023-02-16T15:47:09.848Z,96.71
2023-02-16T15:49:40.942Z,96.92
2023-02-16T15:52:12.407Z,97.59
2023-02-16T15:54:40.673Z,98.24
2023-02-16T15:57:21.664Z,98.34
2023-02-16T15:59:49.909Z,98.71
2023-02-16T16:02:18.561Z,98.82
2023-02-16T16:05:28.706Z,99.26
2023-02-16T16:07:57.073Z,99.82
2023-02-16T16:10:32.063Z,99.91
2023-02-16T16:13:06.666Z,100.00
2023-02-16T16:15:40.803Z,100.00
2023-02-16T16:18:39.029Z,100.00
2023-02-16T16:21:13.652Z,100.00
2023-02-16T16:23:40.726Z,100.00
2023-02-16T16:26:21.723Z,100.00
2023-02-16T16:28:48.396Z,100.00
2023-02-16T16:31:40.108Z,100.00
2023-02-16T16:34:09.556Z,100.00
2023-02-16T16:36:53.870Z,100.00
2023-02-16T16:39:22.515Z,100.00
2023-02-16T16:42:01.180Z,100.00
2023-02-16T16:44:41.099Z,100.00
2023-02-16T16:47:13.778Z,100.00
2023-02-16T16:50:09.649Z,100.00
2023-02-16T16:52:48.114Z,100.00
2023-02-16T16:55:24.210Z,100.00
2023-02-16T16:57:56.560Z,100.00
2023-02-16T17:00:26.547Z,100.00
2023-02-16T17:02:53.258Z,100.00
2023-02-16T17:05:20.707Z,100.00
2023-02-16T17:07:49.191Z,100.00
2023-02-16T17:10:17.884Z,100.00
2023-02-16T17:12:45.838Z,100.00
2023-02-16T17:15:28.128Z,100.00
2023-02-16T17:17:55.215Z,100.00
2023-02-16T17:20:22.230Z,100.00
2023-02-16T17:22:49.152Z,100.00
2023-02-16T17:25:15.792Z,100.00
2023-02-16T17:27:42.568Z,100.00
2023-02-16T17:30:11.078Z,100.00
2023-02-16T17:32:37.866Z,100.00
2023-02-16T17:35:05.373Z,100.00
2023-02-16T17:37:33.529Z,100.00
2023-02-16T17:40:00.147Z,100.00
2023-02-16T17:42:28.255Z,100.00
2023-02-16T17:44:54.937Z,100.00
2023-02-16T17:47:21.552Z,100.00
2023-02-16T17:49:48.097Z,100.00
2023-02-16T17:52:14.773Z,100.00
2023-02-16T17:54:41.454Z,100.00
2023-02-16T17:57:09.750Z,100.00
2023-02-16T17:59:36.891Z,100.00
2023-02-16T18:02:03.558Z,100.00
2023-02-16T18:04:30.183Z,100.00
2023-02-16T18:06:57.054Z,100.00
2023-02-16T18:09:24.509Z,100.00
2023-02-16T18:11:51.548Z,100.00
2023-02-16T18:14:18.453Z,100.00
2023-02-16T18:16:45.138Z,100.00
2023-02-16T18:19:15.037Z,100.00
2023-02-16T18:21:41.694Z,100.00
2023-02-16T18:24:08.370Z,100.00
2023-02-16T18:26:34.967Z,100.00
2023-02-16T18:29:01.621Z,100.00
2023-02-16T18:31:28.415Z,100.00
2023-02-16T18:33:55.120Z,100.00
2023-02-16T18:36:21.704Z,100.00
2023-02-16T18:38:48.317Z,100.00
2023-02-16T18:41:14.964Z,100.00
2023-02-16T18:43:41.644Z,100.00
2023-02-16T18:46:09.799Z,100.00
2023-02-16T18:48:36.979Z,100.00
2023-02-16T18:51:08.919Z,100.00
2023-02-16T18:53:37.664Z,100.00
2023-02-16T18:56:06.207Z,100.00
2023-02-16T18:58:33.774Z,100.00
2023-02-16T19:01:00.492Z,100.00
2023-02-16T19:03:29.226Z,100.00
2023-02-16T19:05:56.743Z,100.00
2023-02-16T19:08:23.495Z,100.00
2023-02-16T19:10:50.039Z,100.00
2023-02-16T19:13:16.641Z,100.00
2023-02-16T19:15:43.362Z,100.00
2023-02-16T19:18:10.098Z,100.00
2023-02-16T19:20:36.792Z,100.00
2023-02-16T19:23:03.584Z,100.00
2023-02-16T19:25:30.272Z,100.00
2023-02-16T19:27:56.931Z,100.00
2023-02-16T19:30:24.265Z,100.00
2023-02-16T19:32:51.328Z,100.00
2023-02-16T19:35:18.167Z,100.00
2023-02-16T19:37:44.808Z,100.00
2023-02-16T19:40:12.615Z,100.00
2023-02-16T19:42:40.066Z,100.00
2023-02-16T19:45:07.057Z,100.00
2023-02-16T19:47:34.207Z,100.00
2023-02-16T19:50:00.853Z,100.00
2023-02-16T19:52:27.492Z,100.00
2023-02-16T19:54:54.158Z,100.00
2023-02-16T19:57:21.088Z,100.00
2023-02-16T19:59:47.707Z,100.00
2023-02-16T20:02:15.566Z,100.00
2023-02-16T20:04:43.855Z,100.00
2023-02-16T20:07:10.850Z,100.00
2023-02-16T20:09:37.874Z,100.00
2023-02-16T20:12:04.878Z,100.00
2023-02-16T20:14:31.473Z,100.00
2023-02-16T20:16:58.120Z,100.00
2023-02-16T20:19:24.758Z,100.00
2023-02-16T20:21:51.417Z,100.00
2023-02-16T20:24:18.083Z,100.00
2023-02-16T20:26:46.428Z,100.00
2023-02-16T20:29:16.129Z,100.00
2023-02-16T20:31:52.706Z,100.00
2023-02-16T20:34:19.904Z,100.00
2023-02-16T20:36:46.716Z,100.00
2023-02-16T20:39:13.671Z,100.00
2023-02-16T20:41:40.944Z,100.00
2023-02-16T20:44:08.043Z,100.00
2023-02-16T20:46:34.853Z,100.00
2023-02-16T20:49:01.482Z,100.00
2023-02-16T20:51:28.115Z,100.00
2023-02-16T20:53:54.873Z,100.00
2023-02-16T20:56:23.788Z,100.00
2023-02-16T20:58:53.790Z,100.00
2023-02-16T21:01:26.719Z,100.00
2023-02-16T21:03:55.007Z,100.00
2023-02-16T21:06:22.444Z,100.00
2023-02-16T21:08:49.418Z,100.00
2023-02-16T21:11:16.169Z,100.00
2023-02-16T21:13:43.822Z,100.00
2023-02-16T21:16:11.083Z,100.00
2023-02-16T21:18:40.369Z,100.00
2023-02-16T21:21:08.012Z,100.00
2023-02-16T21:23:34.739Z,100.00
2023-02-16T21:26:04.026Z,100.00
2023-02-16T21:28:30.953Z,100.00
2023-02-16T21:31:03.116Z,100.00
2023-02-16T21:33:29.776Z,100.00
2023-02-16T21:36:03.772Z,100.00
2023-02-16T21:38:30.708Z,100.00
2023-02-16T21:41:30.311Z,100.00
2023-02-16T21:44:07.710Z,100.00
2023-02-16T21:46:38.971Z,100.00
2023-02-16T21:49:07.960Z,100.00
2023-02-16T21:51:37.112Z,100.00
2023-02-16T21:54:06.528Z,100.00
2023-02-16T21:56:41.686Z,100.00
2023-02-16T21:59:16.744Z,100.00
2023-02-16T22:01:48.846Z,100.00
2023-02-16T22:04:18.908Z,100.00
2023-02-16T22:06:47.529Z,100.00
2023-02-16T22:09:17.868Z,100.00
2023-02-16T22:11:45.612Z,100.00
2023-02-16T22:14:12.933Z,100.00
2023-02-16T22:16:40.048Z,100.00
2023-02-16T22:19:13.338Z,100.00
2023-02-16T22:21:42.339Z,100.00
2023-02-16T22:24:12.484Z,100.00
2023-02-16T22:26:39.160Z,100.00
2023-02-16T22:29:07.618Z,100.00
2023-02-16T22:31:34.924Z,100.00
2023-02-16T22:34:05.823Z,100.00
2023-02-16T22:36:33.049Z,100.00
2023-02-16T22:38:59.763Z,100.00
2023-02-16T22:41:26.737Z,100.00
2023-02-16T22:43:55.307Z,100.00
2023-02-16T22:46:23.552Z,100.00
2023-02-16T22:48:50.797Z,100.00
2023-02-16T22:51:18.656Z,100.00
2023-02-16T22:53:45.787Z,100.00
2023-02-16T22:56:15.168Z,100.00
2023-02-16T22:58:41.740Z,100.00
2023-02-16T23:01:19.975Z,100.00
2023-02-16T23:03:56.662Z,100.00
2023-02-16T23:06:35.001Z,100.00
2023-02-16T23:09:05.929Z,100.00
2023-02-16T23:11:33.996Z,100.00
2023-02-16T23:14:00.968Z,100.00
2023-02-16T23:16:28.617Z,100.00
2023-02-16T23:18:56.585Z,100.00
2023-02-16T23:21:24.865Z,100.00
2023-02-16T23:23:52.722Z,100.00
2023-02-16T23:26:21.566Z,100.00
2023-02-16T23:28:53.950Z,100.00
2023-02-16T23:31:21.874Z,100.00
2023-02-16T23:33:49.232Z,100.00
2023-02-16T23:36:15.942Z,100.00
2023-02-16T23:38:42.790Z,100.00
2023-02-16T23:41:12.857Z,100.00
2023-02-16T23:43:39.806Z,100.00
2023-02-16T23:46:07.399Z,100.00
2023-02-16T23:48:34.271Z,100.00
2023-02-16T23:51:01.012Z,100.00
2023-02-16T23:53:28.327Z,100.00
2023-02-16T23:56:10.991Z,100.00
2023-02-16T23:58:41.030Z,100.00
